.
WxDataArchive / Data Records for 2015-01-16
2015-01-15 January 2015 2015-01-17

Data Records for Friday, 16 January 2015

Time	Temp	Chill	HIndex	Humid	Dewpt	 Wind 	HiWind	WindDir	Rain 	Barom
-----	----	-----	------	-----	-----	------	------	-------	-----	-----
00:00	27.5	27.5	27.5	77	21.3	1	4	248	0.00	30.005 
00:05	27.5	27.5	27.5	78	21.6	1	4	270	0.00	30.005 
00:10	27.5	27.5	27.5	78	21.6	1	2	270	0.00	30.005 
00:15	27.5	27.5	27.5	78	21.6	1	4	270	0.00	30.008 
00:20	27.5	27.5	27.5	78	21.6	1	3	270	0.00	30.008 
00:25	27.5	27.5	27.5	78	21.6	1	3	270	0.00	30.008 
00:30	27.5	27.5	27.5	79	21.9	0	2	270	0.00	30.004 
00:35	27.5	27.5	27.5	79	21.9	1	2	270	0.00	30.004 
00:40	27.6	27.6	27.6	79	22.0	1	3	270	0.00	30.004 
00:45	27.6	27.6	27.6	80	22.3	0	3	248	0.00	30.001 
00:50	27.8	27.8	27.8	80	22.4	1	3	248	0.00	30.001 
00:55	27.9	27.9	27.9	80	22.5	1	2	248	0.00	30.001 
01:00	28.1	28.1	28.1	80	22.7	0	3	248	0.00	30.002 
01:05	28.1	28.1	28.1	80	22.7	1	3	248	0.00	30.002 
01:10	28.1	28.1	28.1	80	22.7	1	2	248	0.00	30.002 
01:15	28.2	28.2	28.2	80	22.8	1	2	248	0.00	29.999 
01:20	28.2	28.2	28.2	80	22.8	0	4	248	0.00	29.999 
01:25	28.4	28.4	28.4	80	23.0	0	2	248	0.00	29.999 
01:30	28.5	28.5	28.5	80	23.1	1	3	270	0.00	29.988 
01:35	28.5	28.5	28.5	80	23.1	1	3	270	0.00	29.988 
01:40	28.7	28.7	28.7	80	23.3	1	3	270	0.00	29.988 
01:45	28.8	28.8	28.8	80	23.4	0	3	270	0.00	29.988 
01:50	29.0	29.0	29.0	80	23.6	1	3	270	0.00	29.988 
01:55	29.1	29.1	29.1	80	23.7	1	3	270	0.00	29.988 
02:00	29.1	29.1	29.1	80	23.7	1	2	270	0.00	29.997 
02:05	29.3	29.3	29.3	80	23.9	1	3	270	0.00	29.997 
02:10	29.3	29.3	29.3	80	23.9	0	2	270	0.00	29.997 
02:15	29.3	29.3	29.3	80	23.9	0	2	270	0.00	30.007 
02:20	29.3	29.3	29.3	79	23.6	0	2	270	0.00	30.007 
02:25	29.1	29.1	29.1	79	23.4	0	2	270	0.00	30.007 
02:30	29.0	29.0	29.0	80	23.6	0	2	270	0.00	30.011 
02:35	29.0	29.0	29.0	80	23.6	0	2	270	0.00	30.011 
02:40	28.8	28.8	28.8	80	23.4	0	2	270	0.00	30.011 
02:45	28.8	28.8	28.8	80	23.4	0	2	270	0.00	30.016 
02:50	28.8	28.8	28.8	80	23.4	0	2	270	0.00	30.016 
02:55	28.7	28.7	28.7	80	23.3	0	2	270	0.00	30.016 
03:00	28.5	28.5	28.5	80	23.1	0	2	270	0.00	30.027 
03:05	28.4	28.4	28.4	80	23.0	0	1	270	0.00	30.027 
03:10	28.2	28.2	28.2	80	22.8	0	2	270	0.00	30.027 
03:15	27.9	27.9	27.9	80	22.5	0	2	270	0.00	30.030 
03:20	27.8	27.8	27.8	81	22.7	0	2	270	0.00	30.030 
03:25	27.6	27.6	27.6	81	22.5	0	2	270	0.00	30.030 
03:30	27.5	27.5	27.5	81	22.4	0	2	270	0.00	30.027 
03:35	27.3	27.3	27.3	81	22.3	0	1	270	0.00	30.027 
03:40	27.0	27.0	27.0	81	22.0	0	1	270	0.00	30.027 
03:45	26.9	26.9	26.9	81	21.9	0	2	270	0.00	30.035 
03:50	26.9	26.9	26.9	81	21.9	0	2	270	0.00	30.035 
03:55	26.7	26.7	26.7	81	21.7	1	2	270	0.00	30.035 
04:00	26.6	26.6	26.6	82	21.9	0	2	270	0.00	30.032 
04:05	26.4	26.4	26.4	82	21.7	0	2	270	0.00	30.032 
04:10	26.1	26.1	26.1	82	21.4	0	1	270	0.00	30.032 
04:15	26.0	26.0	26.0	82	21.3	1	3	270	0.00	30.043 
04:20	25.8	25.8	25.8	82	21.1	0	2	270	0.00	30.043 
04:25	25.7	25.7	25.7	82	21.0	0	2	270	0.00	30.043 
04:30	25.6	25.6	25.6	83	21.2	0	2	270	0.00	30.038 
04:35	25.6	25.6	25.6	83	21.2	0	1	270	0.00	30.038 
04:40	25.4	25.4	25.4	83	21.0	0	2	270	0.00	30.038 
04:45	25.4	25.4	25.4	83	21.0	0	2	270	0.00	30.042 
04:50	25.4	25.4	25.4	84	21.3	0	3	270	0.00	30.042 
04:55	25.4	25.4	25.4	84	21.3	0	2	270	0.00	30.042 
05:00	25.4	25.4	25.4	84	21.3	0	2	270	0.00	30.048 
05:05	25.3	25.3	25.3	84	21.2	0	2	270	0.00	30.048 
05:10	25.1	25.1	25.1	84	21.0	0	1	270	0.00	30.048 
05:15	25.0	25.0	25.0	84	20.9	0	1	270	0.00	30.054 
05:20	24.8	24.8	24.8	84	20.7	0	2	270	0.00	30.054 
05:25	24.7	24.7	24.7	84	20.6	0	1	270	0.00	30.054 
05:30	24.7	24.7	24.7	84	20.6	0	1	270	0.00	30.051 
05:35	24.5	24.5	24.5	84	20.4	0	1	270	0.00	30.051 
05:40	24.5	24.5	24.5	84	20.4	0	1	270	0.00	30.051 
05:45	24.4	24.4	24.4	84	20.3	0	1	270	0.00	30.065 
05:50	24.2	24.2	24.2	84	20.1	0	2	270	0.00	30.065 
05:55	24.2	24.2	24.2	85	20.4	0	2	270	0.00	30.065 
06:00	24.1	24.1	24.1	85	20.3	0	1	270	0.00	30.068 
06:05	23.9	23.9	23.9	85	20.1	0	1	270	0.00	30.068 
06:10	23.8	23.8	23.8	85	20.0	0	1	270	0.00	30.068 
06:15	23.6	23.6	23.6	85	19.8	0	1	270	0.00	30.074 
06:20	23.5	23.5	23.5	85	19.7	0	1	270	0.00	30.074 
06:25	23.3	23.3	23.3	85	19.5	0	1	270	0.00	30.074 
06:30	23.2	23.2	23.2	85	19.4	0	1	270	0.00	30.088 
06:35	23.2	23.2	23.2	86	19.6	0	1	270	0.00	30.088 
06:40	23.2	23.2	23.2	86	19.6	0	2	270	0.00	30.088 
06:45	23.3	23.3	23.3	86	19.7	0	1	270	0.00	30.102 
06:50	23.5	23.5	23.5	86	19.9	0	2	270	0.00	30.102 
06:55	23.6	23.6	23.6	87	20.3	0	2	270	0.00	30.102 
07:00	23.6	23.6	23.6	87	20.3	0	2	270	0.00	30.106 
07:05	23.9	23.9	23.9	87	20.6	0	2	270	0.00	30.106 
07:10	24.1	24.1	24.1	87	20.8	0	2	270	0.00	30.106 
07:15	24.2	24.2	24.2	87	20.9	0	1	270	0.00	30.104 
07:20	24.4	24.4	24.4	87	21.1	0	1	270	0.00	30.104 
07:25	24.5	24.5	24.5	87	21.2	0	2	270	0.00	30.104 
07:30	24.5	24.5	24.5	87	21.2	0	2	270	0.00	30.117 
07:35	24.7	24.7	24.7	87	21.4	0	1	270	0.00	30.117 
07:40	24.7	24.7	24.7	87	21.4	0	1	270	0.00	30.117 
07:45	24.7	24.7	24.7	87	21.4	0	1	270	0.00	30.121 
07:50	24.7	24.7	24.7	87	21.4	0	1	270	0.00	30.121 
07:55	24.8	24.8	24.8	87	21.5	0	1	270	0.00	30.121 
08:00	24.8	24.8	24.8	87	21.5	0	2	270	0.00	30.128 
08:05	25.0	25.0	25.0	87	21.7	0	1	270	0.00	30.128 
08:10	25.0	25.0	25.0	87	21.7	0	1	270	0.00	30.128 
08:15	25.1	25.1	25.1	87	21.8	0	1	315	0.00	30.130 
08:20	25.1	25.1	25.1	87	21.8	0	1	248	0.00	30.130 
08:25	25.3	25.3	25.3	87	22.0	0	1	248	0.00	30.130 
08:30	25.4	25.4	25.4	87	22.1	0	1	248	0.00	30.134 
08:35	25.6	25.6	25.6	87	22.3	0	1	248	0.00	30.134 
08:40	25.7	25.7	25.7	87	22.4	0	1	248	0.00	30.134 
08:45	25.7	25.7	25.7	86	22.1	0	2	248	0.00	30.145 
08:50	25.7	25.7	25.7	86	22.1	0	1	270	0.00	30.145 
08:55	25.8	25.8	25.8	86	22.2	0	2	270	0.00	30.145 
09:00	26.0	26.0	26.0	86	22.4	0	1	270	0.00	30.148 
09:05	26.0	26.0	26.0	86	22.4	0	1	270	0.00	30.148 
09:10	26.1	26.1	26.1	86	22.5	0	2	248	0.00	30.148 
09:15	26.3	26.3	26.3	86	22.7	0	2	248	0.00	30.158 
09:20	26.4	26.4	26.4	86	22.8	0	2	248	0.00	30.158 
09:25	26.6	26.6	26.6	86	23.0	0	2	248	0.00	30.158 
09:30	26.7	26.7	26.7	86	23.1	0	1	248	0.00	30.165 
09:35	26.7	26.7	26.7	86	23.1	0	1	248	0.00	30.165 
09:40	26.9	26.9	26.9	86	23.3	0	1	248	0.00	30.165 
09:45	27.0	27.0	27.0	86	23.4	0	1	248	0.00	30.166 
09:50	27.2	27.2	27.2	86	23.6	0	1	248	0.00	30.166 
09:55	27.2	27.2	27.2	85	23.3	0	1	248	0.00	30.166 
10:00	27.3	27.3	27.3	85	23.4	0	1	248	0.00	30.174 
10:05	27.5	27.5	27.5	85	23.6	0	1	248	0.00	30.174 
10:10	27.6	27.6	27.6	85	23.7	0	1	248	0.00	30.174 
10:15	27.8	27.8	27.8	85	23.9	0	1	248	0.00	30.175 
10:20	27.9	27.9	27.9	85	24.0	0	0	---	0.00	30.175 
10:25	28.2	28.2	28.2	85	24.3	0	1	248	0.00	30.175 
10:30	28.4	28.4	28.4	84	24.2	0	2	248	0.00	30.177 
10:35	28.7	28.7	28.7	84	24.5	0	2	248	0.00	30.177 
10:40	28.8	28.8	28.8	84	24.6	0	1	248	0.00	30.177 
10:45	29.0	29.0	29.0	83	24.5	0	1	248	0.00	30.189 
10:50	29.0	29.0	29.0	83	24.5	0	2	248	0.00	30.189 
10:55	29.1	29.1	29.1	83	24.6	0	1	248	0.00	30.189 
11:00	29.1	29.1	29.1	82	24.3	0	1	248	0.00	30.188 
11:05	29.3	29.3	29.3	82	24.5	0	2	248	0.00	30.188 
11:10	29.4	29.4	29.4	82	24.6	0	1	248	0.00	30.188 
11:15	29.5	29.5	29.5	82	24.7	0	1	248	0.00	30.189 
11:20	29.7	29.7	29.7	82	24.9	0	2	248	0.00	30.189 
11:25	29.8	29.8	29.8	81	24.7	0	2	248	0.00	30.189 
11:30	30.0	30.0	30.0	81	24.9	0	2	248	0.00	30.188 
11:35	30.1	30.1	30.1	81	25.0	0	2	248	0.00	30.188 
11:40	30.3	30.3	30.3	81	25.2	0	1	248	0.00	30.188 
11:45	30.4	30.4	30.4	81	25.3	0	1	248	0.00	30.187 
11:50	30.6	30.6	30.6	80	25.2	0	1	248	0.00	30.187 
11:55	30.7	30.7	30.7	80	25.3	0	1	248	0.00	30.187 
12:00	31.0	31.0	31.0	80	25.6	0	2	248	0.00	30.187 
12:05	31.0	31.0	31.0	80	25.6	0	1	248	0.00	30.187 
12:10	31.3	31.3	31.3	79	25.6	0	1	248	0.00	30.187 
12:15	31.5	31.5	31.5	79	25.8	0	1	248	0.00	30.183 
12:20	31.5	31.5	31.5	78	25.4	0	1	248	0.00	30.183 
12:25	31.6	31.6	31.6	78	25.5	0	2	248	0.00	30.183 
12:30	31.8	31.8	31.8	78	25.7	0	2	248	0.00	30.184 
12:35	31.9	31.9	31.9	78	25.8	0	1	248	0.00	30.184 
12:40	32.2	32.2	32.2	78	26.1	0	1	248	0.00	30.184 
12:45	32.4	32.4	32.4	77	26.0	0	1	248	0.00	30.180 
12:50	32.5	32.5	32.5	77	26.1	0	2	315	0.00	30.180 
12:55	32.5	32.5	32.5	77	26.1	0	3	315	0.00	30.180 
13:00	32.5	32.5	32.5	77	26.1	0	2	315	0.00	30.178 
13:05	32.7	32.7	32.7	76	26.0	1	3	338	0.00	30.178 
13:10	32.7	32.7	32.7	77	26.3	1	3	338	0.00	30.178 
13:15	32.8	32.8	32.8	76	26.1	0	2	315	0.00	30.168 
13:20	32.9	32.9	32.9	76	26.2	0	2	315	0.00	30.168 
13:25	32.9	32.9	32.9	76	26.2	0	2	315	0.00	30.168 
13:30	32.9	32.9	32.9	75	25.9	0	2	315	0.00	30.160 
13:35	33.1	33.1	33.1	75	26.1	0	2	315	0.00	30.160 
13:40	33.2	33.2	33.2	75	26.2	0	0	---	0.01	30.160 
13:45	33.2	33.2	33.2	75	26.2	0	2	315	0.00	30.161 
13:50	33.4	33.4	33.4	75	26.3	0	1	315	0.00	30.161 
13:55	33.4	33.4	33.4	75	26.3	0	1	315	0.00	30.161 
14:00	33.5	33.5	33.5	75	26.4	0	1	315	0.00	30.159 
14:05	33.5	33.5	33.5	75	26.4	0	1	315	0.00	30.159 
14:10	33.5	33.5	33.5	75	26.4	0	1	315	0.00	30.159 
14:15	33.7	33.7	33.7	75	26.6	0	1	315	0.00	30.158 
14:20	33.8	33.8	33.8	74	26.4	0	1	315	0.00	30.158 
14:25	34.0	34.0	34.0	74	26.6	0	1	315	0.00	30.158 
14:30	34.0	34.0	34.0	74	26.6	0	0	---	0.00	30.155 
14:35	34.1	34.1	34.1	73	26.4	0	1	315	0.00	30.155 
14:40	34.1	34.1	34.1	73	26.4	0	2	315	0.00	30.155 
14:45	34.0	34.0	34.0	73	26.3	0	2	315	0.00	30.158 
14:50	34.1	34.1	34.1	73	26.4	0	1	315	0.00	30.158 
14:55	34.1	34.1	34.1	73	26.4	0	1	315	0.00	30.158 
15:00	34.0	34.0	34.0	73	26.3	0	1	315	0.00	30.161 
15:05	34.0	34.0	34.0	73	26.3	0	1	315	0.00	30.161 
15:10	34.0	34.0	34.0	73	26.3	0	1	315	0.00	30.161 
15:15	33.8	33.8	33.8	73	26.1	0	1	315	0.00	30.165 
15:20	33.8	33.8	33.8	73	26.1	0	1	315	0.00	30.165 
15:25	33.8	33.8	33.8	73	26.1	0	1	315	0.00	30.165 
15:30	33.7	33.7	33.7	73	26.0	0	1	315	0.00	30.162 
15:35	33.5	33.5	33.5	73	25.8	0	1	315	0.00	30.162 
15:40	33.4	33.4	33.4	73	25.7	0	0	---	0.00	30.162 
15:45	33.2	33.2	33.2	73	25.5	0	1	315	0.00	30.164 
15:50	33.2	33.2	33.2	74	25.8	0	0	---	0.00	30.164 
15:55	33.2	33.2	33.2	74	25.8	0	0	---	0.00	30.164 
16:00	33.4	33.4	33.4	73	25.7	0	0	---	0.00	30.167 
16:05	33.5	33.5	33.5	74	26.1	0	0	---	0.00	30.167 
16:10	33.7	33.7	33.7	73	26.0	0	0	---	0.00	30.167 
16:15	33.8	33.8	33.8	73	26.1	0	0	---	0.00	30.175 
16:20	33.8	33.8	33.8	73	26.1	0	1	315	0.00	30.175 
16:25	33.8	33.8	33.8	73	26.1	0	0	---	0.00	30.175 
16:30	33.8	33.8	33.8	73	26.1	0	1	315	0.00	30.183 
16:35	33.8	33.8	33.8	74	26.4	0	2	315	0.00	30.183 
16:40	33.5	33.5	33.5	74	26.1	0	2	315	0.00	30.183 
16:45	33.2	33.2	33.2	75	26.2	0	1	315	0.00	30.185 
16:50	33.2	33.2	33.2	76	26.5	0	0	---	0.00	30.185 
16:55	33.2	33.2	33.2	76	26.5	0	1	315	0.00	30.185 
17:00	33.1	33.1	33.1	76	26.4	0	0	---	0.00	30.188 
17:05	33.1	33.1	33.1	76	26.4	0	0	---	0.00	30.188 
17:10	33.1	33.1	33.1	76	26.4	0	1	315	0.00	30.188 
17:15	32.9	32.9	32.9	76	26.2	0	2	315	0.00	30.190 
17:20	32.8	32.8	32.8	77	26.4	0	1	315	0.00	30.190 
17:25	32.5	32.5	32.5	77	26.1	0	0	---	0.00	30.190 
17:30	32.4	32.4	32.4	78	26.3	0	0	---	0.00	30.189 
17:35	32.2	32.2	32.2	78	26.1	0	1	315	0.00	30.189 
17:40	32.1	32.1	32.1	79	26.3	0	1	315	0.00	30.189 
17:45	31.9	31.9	31.9	79	26.1	0	0	---	0.00	30.193 
17:50	31.8	31.8	31.8	79	26.0	0	0	---	0.00	30.193 
17:55	31.8	31.8	31.8	80	26.3	0	1	315	0.00	30.193 
18:00	31.6	31.6	31.6	80	26.2	0	1	315	0.00	30.191 
18:05	31.5	31.5	31.5	80	26.1	0	1	315	0.00	30.191 
18:10	31.3	31.3	31.3	80	25.9	0	0	---	0.00	30.191 
18:15	31.2	31.2	31.2	81	26.1	0	0	---	0.00	30.200 
18:20	31.0	31.0	31.0	81	25.9	0	0	---	0.00	30.200 
18:25	30.7	30.7	30.7	81	25.6	0	0	---	0.00	30.200 
18:30	30.6	30.6	30.6	81	25.5	0	0	---	0.00	30.205 
18:35	30.1	30.1	30.1	81	25.0	0	0	---	0.00	30.205 
18:40	29.5	29.5	29.5	81	24.4	0	1	315	0.00	30.205 
18:45	29.1	29.1	29.1	82	24.3	0	0	---	0.00	30.210 
18:50	28.7	28.7	28.7	83	24.2	0	0	---	0.00	30.210 
18:55	28.5	28.5	28.5	84	24.3	0	0	---	0.00	30.210 
19:00	28.4	28.4	28.4	84	24.2	0	0	---	0.00	30.210 
19:05	27.9	27.9	27.9	84	23.7	0	1	315	0.00	30.210 
19:10	27.8	27.8	27.8	85	23.9	0	0	---	0.00	30.210 
19:15	27.8	27.8	27.8	86	24.2	0	0	---	0.00	30.210 
19:20	27.6	27.6	27.6	86	24.0	0	0	---	0.00	30.210 
19:25	27.5	27.5	27.5	86	23.9	0	0	---	0.00	30.210 
19:30	27.0	27.0	27.0	86	23.4	0	0	---	0.00	30.212 
19:35	26.7	26.7	26.7	86	23.1	0	0	---	0.00	30.212 
19:40	26.6	26.6	26.6	87	23.3	0	0	---	0.00	30.212 
19:45	26.3	26.3	26.3	87	23.0	0	1	315	0.00	30.211 
19:50	26.1	26.1	26.1	87	22.8	0	0	---	0.00	30.211 
19:55	26.1	26.1	26.1	87	22.8	0	0	---	0.00	30.211 
20:00	26.0	26.0	26.0	87	22.7	0	0	---	0.00	30.206 
20:05	25.8	25.8	25.8	88	22.7	0	1	315	0.00	30.206 
20:10	25.8	25.8	25.8	88	22.7	0	1	315	0.00	30.206 
20:15	26.0	26.0	26.0	88	22.9	0	3	315	0.00	30.193 
20:20	26.3	26.3	26.3	89	23.5	1	3	22	0.00	30.193 
20:25	26.4	26.4	26.4	88	23.3	0	2	22	0.00	30.193 
20:30	26.3	26.3	26.3	88	23.2	0	0	---	0.00	30.197 
20:35	26.0	26.0	26.0	88	22.9	0	0	---	0.00	30.197 
20:40	25.8	25.8	25.8	88	22.7	0	0	---	0.00	30.197 
20:45	25.6	25.6	25.6	88	22.5	0	1	22	0.00	30.194 
20:50	25.4	25.4	25.4	88	22.4	0	0	---	0.00	30.194 
20:55	25.3	25.3	25.3	88	22.3	0	1	22	0.00	30.194 
21:00	25.1	25.1	25.1	88	22.1	0	1	22	0.00	30.194 
21:05	25.1	25.1	25.1	89	22.3	0	2	22	0.00	30.194 
21:10	24.8	24.8	24.8	88	21.8	1	4	68	0.00	30.194 
21:15	24.5	24.5	24.5	88	21.5	1	3	90	0.00	30.195 
21:20	24.1	24.1	24.1	88	21.1	0	2	90	0.00	30.195 
21:25	23.8	23.8	23.8	88	20.8	1	3	90	0.00	30.195 
21:30	23.5	23.5	23.5	88	20.5	0	3	90	0.00	30.204 
21:35	23.2	23.2	23.2	88	20.2	1	3	90	0.00	30.204 
21:40	22.9	22.9	22.9	88	19.9	1	4	90	0.00	30.204 
21:45	22.7	22.7	22.7	88	19.7	1	5	90	0.00	30.201 
21:50	22.5	22.5	22.5	87	19.2	1	3	112	0.00	30.201 
21:55	22.4	22.4	22.4	87	19.1	1	3	112	0.00	30.201 
22:00	22.2	22.2	22.2	86	18.7	1	3	112	0.00	30.202 
22:05	22.1	22.1	22.1	86	18.6	1	4	112	0.00	30.202 
22:10	21.9	21.9	21.9	85	18.1	1	4	112	0.00	30.202 
22:15	21.8	21.8	21.8	85	18.0	1	3	112	0.00	30.199 
22:20	21.8	21.8	21.8	84	17.7	1	4	112	0.00	30.199 
22:25	21.6	21.6	21.6	84	17.5	0	2	112	0.00	30.199 
22:30	21.4	21.4	21.4	84	17.3	1	4	112	0.00	30.195 
22:35	21.3	21.3	21.3	83	17.0	1	4	112	0.00	30.195 
22:40	21.3	21.3	21.3	83	17.0	1	4	112	0.00	30.195 
22:45	21.3	21.3	21.3	83	17.0	1	4	135	0.00	30.192 
22:50	21.4	21.4	21.4	82	16.8	2	4	135	0.00	30.192 
22:55	21.4	21.4	21.4	82	16.8	1	4	90	0.00	30.192 
23:00	21.4	21.4	21.4	82	16.8	2	4	90	0.00	30.182 
23:05	21.6	21.6	21.6	81	16.7	1	4	90	0.00	30.182 
23:10	21.6	21.6	21.6	81	16.7	2	5	90	0.00	30.182 
23:15	21.4	21.4	21.4	80	16.2	2	5	90	0.00	30.184 
23:20	21.4	21.4	21.4	80	16.2	1	4	90	0.00	30.184 
23:25	21.3	21.3	21.3	80	16.1	2	5	90	0.00	30.184 
23:30	21.3	21.3	21.3	79	15.8	1	3	90	0.00	30.182 
23:35	21.1	21.1	21.1	79	15.6	1	4	90	0.00	30.182 
23:40	21.1	21.1	21.1	78	15.3	2	5	90	0.00	30.182 
23:45	21.1	21.1	21.1	78	15.3	1	4	90	0.00	30.179 
23:50	21.0	21.0	21.0	77	14.9	2	5	90	0.00	30.179 
23:55	20.8	20.8	20.8	77	14.7	2	5	90	0.00	30.179 

CoCoRaHS
IN-AL-39
A2 Web Hosting
Creative Commons License
GoDaddy
search engine by freefind advanced

loaded 2018-11-22 06:48:29 • last modified 2010-11-18 10:43:29
Privacy PolicyDisclaimer
• wx.awcolley.com is powered by PmWiki v.2002016 •
• all content (unless otherwise noted) © 2018 A W Colley